Time,TemperatureF,DewpointF,PressureIn,WindDirection,WindDirectionDegrees,WindSpeedMPH,WindSpeedGustMPH,Humidity,HourlyPrecipIn,Conditions,Clouds,dailyrainin,SoftwareType,DateUTC
2013-02-22 00:40:00,36.0,-99.9,-100.00,North,359,2.0,3.0,-999,-99.99,,,-99.99,,2013-02-22 06:40:00,
2013-02-22 01:22:00,36.0,-99.9,-100.00,North,359,2.0,3.0,-999,-99.99,,,-99.99,,2013-02-22 07:22:00,
2013-02-22 01:32:00,36.0,-99.9,-100.00,North,359,2.0,3.0,-999,-99.99,,,-99.99,,2013-02-22 07:32:00,
2013-02-22 03:03:00,29.0,-99.9,-100.00,SE,140,0.0,3.0,-999,-99.99,,,-99.99,,2013-02-22 09:03:00,
2013-02-22 03:11:00,29.0,-99.9,-100.00,SE,140,0.0,3.0,-999,-99.99,,,-99.99,,2013-02-22 09:11:00,
2013-02-22 03:22:00,29.0,-99.9,-100.00,SE,140,0.0,3.0,-999,-99.99,,,-99.99,,2013-02-22 09:22:00,
2013-02-22 04:22:00,29.0,-99.9,-100.00,SE,139,0.0,3.0,-999,-99.99,,,-99.99,,2013-02-22 10:22:00,
2013-02-22 04:32:00,29.0,-99.9,-100.00,NW,317,10.0,10.0,-999,-99.99,,,-99.99,,2013-02-22 10:32:00,
2013-02-22 04:42:00,29.0,-99.9,-100.00,NW,317,10.0,10.0,-999,-99.99,,,-99.99,,2013-02-22 10:42:00,
2013-02-22 04:52:00,29.0,-99.9,-100.00,NW,317,10.0,10.0,-999,-99.99,,,-99.99,,2013-02-22 10:52:00,
2013-02-22 06:20:00,29.0,-99.9,-100.00,NNE,31,1.0,3.0,-999,-99.99,,,-99.99,,2013-02-22 12:20:00,
2013-02-22 07:02:00,29.0,-99.9,-100.00,NNE,31,1.0,3.0,-999,-99.99,,,-99.99,,2013-02-22 13:02:00,
2013-02-22 07:11:00,29.0,-99.9,-100.00,NNE,31,1.0,3.0,-999,-99.99,,,-99.99,,2013-02-22 13:11:00,
2013-02-22 07:20:00,29.0,-99.9,-100.00,NW,319,8.0,8.0,-999,-99.99,,,-99.99,,2013-02-22 13:20:00,
2013-02-22 08:01:00,29.0,-99.9,-100.00,NW,319,8.0,8.0,-999,-99.99,,,-99.99,,2013-02-22 14:01:00,
2013-02-22 08:12:00,29.0,-99.9,-100.00,NW,319,8.0,8.0,-999,-99.99,,,-99.99,,2013-02-22 14:12:00,
2013-02-22 08:50:00,40.0,-99.9,-100.00,NW,325,7.0,10.0,-999,-99.99,,,-99.99,,2013-02-22 14:50:00,
2013-02-22 09:22:00,38.0,-99.9,-100.00,SE,136,0.0,7.0,-999,-99.99,,,-99.99,,2013-02-22 15:22:00,
2013-02-22 09:32:00,40.0,-99.9,-100.00,NW,325,7.0,10.0,-999,-99.99,,,-99.99,,2013-02-22 15:32:00,
2013-02-22 09:42:00,40.0,-99.9,-100.00,NW,325,7.0,10.0,-999,-99.99,,,-99.99,,2013-02-22 15:42:00,
2013-02-22 12:50:00,54.0,-99.9,-100.00,NW,305,13.0,14.0,-999,-99.99,,,-99.99,,2013-02-22 18:50:00,
2013-02-22 13:31:00,54.0,-99.9,-100.00,NW,305,13.0,14.0,-999,-99.99,,,-99.99,,2013-02-22 19:31:00,
2013-02-22 13:42:00,54.0,-99.9,-100.00,NW,305,13.0,14.0,-999,-99.99,,,-99.99,,2013-02-22 19:42:00,
2013-02-22 14:30:00,60.0,-99.9,-100.00,WNW,302,4.0,18.0,-999,-99.99,,,-99.99,,2013-02-22 20:30:00,
2013-02-22 15:02:00,60.0,-99.9,-100.00,WNW,302,4.0,18.0,-999,-99.99,,,-99.99,,2013-02-22 21:02:00,
2013-02-22 15:10:00,59.0,-99.9,-100.00,NNW,337,0.0,20.0,-999,-99.99,,,-99.99,,2013-02-22 21:10:00,
2013-02-22 15:11:00,60.0,-99.9,-100.00,WNW,302,4.0,18.0,-999,-99.99,,,-99.99,,2013-02-22 21:11:00,
2013-02-22 15:22:00,60.0,-99.9,-100.00,WNW,302,4.0,18.0,-999,-99.99,,,-99.99,,2013-02-22 21:22:00,
2013-02-22 15:52:00,59.0,-99.9,-100.00,NNW,337,0.0,20.0,-999,-99.99,,,-99.99,,2013-02-22 21:52:00,
2013-02-22 16:02:00,59.0,-99.9,-100.00,NNW,337,0.0,20.0,-999,-99.99,,,-99.99,,2013-02-22 22:02:00,
2013-02-22 17:52:00,58.0,-99.9,-100.00,WNW,298,16.0,22.0,-999,-99.99,,,-99.99,,2013-02-22 23:52:00,
2013-02-22 18:02:00,58.0,-99.9,-100.00,WNW,298,16.0,22.0,-999,-99.99,,,-99.99,,2013-02-23 00:02:00,
2013-02-22 21:52:00,39.0,-99.9,-100.00,North,351,4.0,5.0,-999,-99.99,,,-99.99,,2013-02-23 03:52:00,
2013-02-22 22:00:00,40.0,-99.9,-100.00,North,357,2.0,3.0,-999,-99.99,,,-99.99,,2013-02-23 04:00:00,
2013-02-22 22:01:00,39.0,-99.9,-100.00,North,351,4.0,5.0,-999,-99.99,,,-99.99,,2013-02-23 04:01:00,
2013-02-22 22:32:00,40.0,-99.9,-100.00,North,357,2.0,3.0,-999,-99.99,,,-99.99,,2013-02-23 04:32:00,
2013-02-22 22:42:00,40.0,-99.9,-100.00,North,357,2.0,3.0,-999,-99.99,,,-99.99,,2013-02-23 04:42:00,
2013-02-22 22:52:00,40.0,-99.9,-100.00,North,357,2.0,3.0,-999,-99.99,,,-99.99,,2013-02-23 04:52:00,
2013-02-22 23:10:00,36.0,-99.9,-100.00,NW,304,7.0,7.0,-999,-99.99,,,-99.99,,2013-02-23 05:10:00,
2013-02-22 23:52:00,36.0,-99.9,-100.00,NW,304,7.0,7.0,-999,-99.99,,,-99.99,,2013-02-23 05:52:00,